This is the latest recevied weather packets stored in our database for station/object KD0OXW. If no packets are shown the sender has not sent any weather packets the latest 10 day(s).
| Time | Temp. | Humidity | Pressure | Rain* | Wind** | Luminosity | Snow |
|---|---|---|---|---|---|---|---|
| 1777789397 | 10.56° C | 69% | 1008.9 hPa | 0 mm | - | - | - |
| 1777789097 | 10.56° C | 69% | 1009 hPa | 0 mm | - | - | - |
| 1777788797 | 11.11° C | 67% | 1008.9 hPa | 0 mm | - | - | - |
| 1777788497 | 11.11° C | 66% | 1008.9 hPa | 0 mm | - | - | - |
| 1777788197 | 11.67° C | 63% | 1008.8 hPa | 0 mm | - | - | - |
| 1777787897 | 11.67° C | 64% | 1008.9 hPa | 0 mm | - | - | - |
| 1777787597 | 12.22° C | 60% | 1009 hPa | 0 mm | - | - | - |
| 1777787297 | 12.22° C | 56% | 1009.1 hPa | 0 mm | - | - | - |
| 1777786997 | 12.22° C | 56% | 1009.1 hPa | 0 mm | - | - | - |
| 1777786697 | 12.22° C | 55% | 1009.1 hPa | 0 mm | - | - | - |
| 1777786397 | 12.22° C | 55% | 1009.1 hPa | 0 mm | - | - | - |
| 1777786097 | 12.22° C | 55% | 1009.1 hPa | 0 mm | - | - | - |
| 1777785797 | 12.22° C | 54% | 1009.1 hPa | 0 mm | - | - | - |
| 1777785497 | 12.22° C | 54% | 1009.2 hPa | 0 mm | - | - | - |
| 1777785197 | 12.22° C | 55% | 1009.2 hPa | 0 mm | - | - | - |
| 1777784897 | 12.22° C | 56% | 1009.2 hPa | 0 mm | - | - | - |
| 1777784597 | 12.22° C | 57% | 1009.2 hPa | 0 mm | - | - | - |
| 1777784297 | 11.67° C | 57% | 1009.2 hPa | 0 mm | - | - | - |
| 1777783997 | 11.67° C | 59% | 1009.2 hPa | 0 mm | - | - | - |
| 1777783697 | 11.67° C | 58% | 1009.2 hPa | 0 mm | - | - | - |
| 1777783397 | 11.67° C | 58% | 1009.2 hPa | 0 mm | - | - | - |
| 1777783097 | 12.22° C | 56% | 1009.3 hPa | 0 mm | - | - | - |
| 1777782797 | 12.22° C | 57% | 1009.3 hPa | 0 mm | - | - | - |
| 1777782497 | 12.22° C | 56% | 1009.3 hPa | 0 mm | - | - | - |
| 1777782197 | 12.78° C | 55% | 1009.4 hPa | 0 mm | - | - | - |
* Rain latest hour (hover to see other rain measurements)
** Current wind speed in m/s (hover to see current wind gust speed)